Hico, West Virginia
Current Conditions -  °F | °C
As of 5:32 AM on Sunday 26 Oct 2014 (Local Time) from KBKW Reporting Station
Scattered Clouds Scattered Clouds  
Wind Chill: 55°   Ceiling: Unl
Heat Index: 55°   Visibility: 10mi
Dew Point: 48°   Wind: 15mph
Humidity: 77%   Direction: 310°NW
Pressure: 29.92"   Gusts: 23mph
Location:  38.12°N, 81.01°W
Report Text: KBKW 260932Z AUTO 31013G20KT 10SM SCT020 SCT024 13/09 A2992 RMK AO2 T01280089 TSNO
Loading
Personal Weather Stations






























Interactive Weather Map
Tropical Storm Tracking
New forecast layout! Learn more

10-Day Weather Forecast

Advertisements
Track Severe Weather on mobile